sensor_id;sensor_type;location;lat;lon;timestamp;temperature;humidity
11569;DHT22;5840;46.894;15.542;2022-09-03T00:00:34;14.40;99.90
11569;DHT22;5840;46.894;15.542;2022-09-03T00:03:07;14.40;99.90
11569;DHT22;5840;46.894;15.542;2022-09-03T00:05:40;14.40;99.90
11569;DHT22;5840;46.894;15.542;2022-09-03T00:08:13;14.40;99.90
11569;DHT22;5840;46.894;15.542;2022-09-03T00:10:48;14.40;99.90
11569;DHT22;5840;46.894;15.542;2022-09-03T00:13:20;14.30;99.90
11569;DHT22;5840;46.894;15.542;2022-09-03T00:15:50;14.20;99.90
11569;DHT22;5840;46.894;15.542;2022-09-03T00:18:21;14.20;99.90
11569;DHT22;5840;46.894;15.542;2022-09-03T00:20:53;14.20;99.90
11569;DHT22;5840;46.894;15.542;2022-09-03T00:23:24;14.20;99.90
11569;DHT22;5840;46.894;15.542;2022-09-03T00:25:57;14.10;99.90
11569;DHT22;5840;46.894;15.542;2022-09-03T00:28:29;14.10;99.90
11569;DHT22;5840;46.894;15.542;2022-09-03T00:31:06;14.20;99.90
11569;DHT22;5840;46.894;15.542;2022-09-03T00:33:39;14.10;99.90
11569;DHT22;5840;46.894;15.542;2022-09-03T00:36:13;14.10;99.90
11569;DHT22;5840;46.894;15.542;2022-09-03T00:38:42;14.10;99.90
11569;DHT22;5840;46.894;15.542;2022-09-03T00:41:19;14.00;99.90
11569;DHT22;5840;46.894;15.542;2022-09-03T00:43:57;14.00;99.90
11569;DHT22;5840;46.894;15.542;2022-09-03T00:46:36;14.00;99.90
11569;DHT22;5840;46.894;15.542;2022-09-03T00:49:21;14.00;99.90
11569;DHT22;5840;46.894;15.542;2022-09-03T00:52:00;14.00;99.90
11569;DHT22;5840;46.894;15.542;2022-09-03T00:54:32;13.90;99.90
11569;DHT22;5840;46.894;15.542;2022-09-03T00:57:15;13.90;99.90
11569;DHT22;5840;46.894;15.542;2022-09-03T00:59:56;13.90;99.90
11569;DHT22;5840;46.894;15.542;2022-09-03T01:02:36;13.80;99.90
11569;DHT22;5840;46.894;15.542;2022-09-03T01:05:20;13.80;99.90
11569;DHT22;5840;46.894;15.542;2022-09-03T01:07:53;13.80;99.90
11569;DHT22;5840;46.894;15.542;2022-09-03T01:10:28;13.80;99.90
11569;DHT22;5840;46.894;15.542;2022-09-03T01:13:06;13.80;99.90
11569;DHT22;5840;46.894;15.542;2022-09-03T01:15:44;13.70;99.90
11569;DHT22;5840;46.894;15.542;2022-09-03T01:18:22;13.70;99.90
11569;DHT22;5840;46.894;15.542;2022-09-03T01:21:02;13.70;99.90
11569;DHT22;5840;46.894;15.542;2022-09-03T01:23:58;13.60;99.90
11569;DHT22;5840;46.894;15.542;2022-09-03T01:26:50;13.60;99.90
11569;DHT22;5840;46.894;15.542;2022-09-03T01:29:25;13.50;99.90
11569;DHT22;5840;46.894;15.542;2022-09-03T01:32:03;13.50;99.90
11569;DHT22;5840;46.894;15.542;2022-09-03T01:34:45;13.50;99.90
11569;DHT22;5840;46.894;15.542;2022-09-03T01:37:18;13.50;99.90
11569;DHT22;5840;46.894;15.542;2022-09-03T01:39:59;13.40;99.90
11569;DHT22;5840;46.894;15.542;2022-09-03T01:42:36;13.40;99.90
11569;DHT22;5840;46.894;15.542;2022-09-03T01:45:31;13.30;99.90
11569;DHT22;5840;46.894;15.542;2022-09-03T01:48:18;13.30;99.90
11569;DHT22;5840;46.894;15.542;2022-09-03T01:50:50;13.30;99.90
11569;DHT22;5840;46.894;15.542;2022-09-03T01:53:44;13.30;99.90
11569;DHT22;5840;46.894;15.542;2022-09-03T01:56:30;13.30;99.90
11569;DHT22;5840;46.894;15.542;2022-09-03T01:59:05;13.30;99.90
11569;DHT22;5840;46.894;15.542;2022-09-03T02:01:42;13.20;99.90
11569;DHT22;5840;46.894;15.542;2022-09-03T02:04:16;13.20;99.90
11569;DHT22;5840;46.894;15.542;2022-09-03T02:06:45;13.20;99.90
11569;DHT22;5840;46.894;15.542;2022-09-03T02:09:13;13.20;99.90
11569;DHT22;5840;46.894;15.542;2022-09-03T02:11:41;13.20;99.90
11569;DHT22;5840;46.894;15.542;2022-09-03T02:14:09;13.20;99.90
11569;DHT22;5840;46.894;15.542;2022-09-03T02:16:37;13.20;99.90
11569;DHT22;5840;46.894;15.542;2022-09-03T02:19:07;13.20;99.90
11569;DHT22;5840;46.894;15.542;2022-09-03T02:21:38;13.20;99.90
11569;DHT22;5840;46.894;15.542;2022-09-03T02:24:07;13.20;99.90
11569;DHT22;5840;46.894;15.542;2022-09-03T02:26:34;13.20;99.90
11569;DHT22;5840;46.894;15.542;2022-09-03T02:29:02;13.20;99.90
11569;DHT22;5840;46.894;15.542;2022-09-03T02:31:29;13.20;99.90
11569;DHT22;5840;46.894;15.542;2022-09-03T02:33:57;13.10;99.90
11569;DHT22;5840;46.894;15.542;2022-09-03T02:36:27;13.10;99.90
11569;DHT22;5840;46.894;15.542;2022-09-03T02:38:55;13.10;99.90
11569;DHT22;5840;46.894;15.542;2022-09-03T02:41:22;13.10;99.90
11569;DHT22;5840;46.894;15.542;2022-09-03T02:43:55;13.00;99.90
11569;DHT22;5840;46.894;15.542;2022-09-03T02:46:28;12.90;99.90
11569;DHT22;5840;46.894;15.542;2022-09-03T02:48:59;12.90;99.90
11569;DHT22;5840;46.894;15.542;2022-09-03T02:51:26;12.90;99.90
11569;DHT22;5840;46.894;15.542;2022-09-03T02:53:57;12.80;99.90
11569;DHT22;5840;46.894;15.542;2022-09-03T02:56:24;12.80;99.90
11569;DHT22;5840;46.894;15.542;2022-09-03T02:58:52;12.80;99.90
11569;DHT22;5840;46.894;15.542;2022-09-03T03:01:19;12.70;99.90
11569;DHT22;5840;46.894;15.542;2022-09-03T03:03:46;12.70;99.90
11569;DHT22;5840;46.894;15.542;2022-09-03T03:06:15;12.60;99.90
11569;DHT22;5840;46.894;15.542;2022-09-03T03:08:45;12.60;99.90
11569;DHT22;5840;46.894;15.542;2022-09-03T03:11:12;12.60;99.90
11569;DHT22;5840;46.894;15.542;2022-09-03T03:13:43;12.60;99.90
11569;DHT22;5840;46.894;15.542;2022-09-03T03:16:11;12.60;99.90
11569;DHT22;5840;46.894;15.542;2022-09-03T03:18:38;12.60;99.90
11569;DHT22;5840;46.894;15.542;2022-09-03T03:21:06;12.60;99.90
11569;DHT22;5840;46.894;15.542;2022-09-03T03:23:36;12.60;99.90
11569;DHT22;5840;46.894;15.542;2022-09-03T03:26:05;12.60;99.90
11569;DHT22;5840;46.894;15.542;2022-09-03T03:28:33;12.60;99.90
11569;DHT22;5840;46.894;15.542;2022-09-03T03:31:04;12.60;99.90
11569;DHT22;5840;46.894;15.542;2022-09-03T03:33:32;12.60;99.90
11569;DHT22;5840;46.894;15.542;2022-09-03T03:36:03;12.50;99.90
11569;DHT22;5840;46.894;15.542;2022-09-03T03:38:30;12.50;99.90
11569;DHT22;5840;46.894;15.542;2022-09-03T03:40:58;12.50;99.90
11569;DHT22;5840;46.894;15.542;2022-09-03T03:43:25;12.50;99.90
11569;DHT22;5840;46.894;15.542;2022-09-03T03:45:56;12.50;99.90
11569;DHT22;5840;46.894;15.542;2022-09-03T03:48:23;12.50;99.90
11569;DHT22;5840;46.894;15.542;2022-09-03T03:50:50;12.50;99.90
11569;DHT22;5840;46.894;15.542;2022-09-03T03:53:17;12.50;99.90
11569;DHT22;5840;46.894;15.542;2022-09-03T03:55:53;12.50;99.90
11569;DHT22;5840;46.894;15.542;2022-09-03T03:58:22;12.40;99.90
11569;DHT22;5840;46.894;15.542;2022-09-03T04:00:49;12.40;99.90
11569;DHT22;5840;46.894;15.542;2022-09-03T04:03:16;12.30;99.90
11569;DHT22;5840;46.894;15.542;2022-09-03T04:05:53;12.30;99.90
11569;DHT22;5840;46.894;15.542;2022-09-03T04:08:20;12.30;99.90
11569;DHT22;5840;46.894;15.542;2022-09-03T04:10:47;12.20;99.90
11569;DHT22;5840;46.894;15.542;2022-09-03T04:13:14;12.20;99.90
11569;DHT22;5840;46.894;15.542;2022-09-03T04:15:43;12.20;99.90
11569;DHT22;5840;46.894;15.542;2022-09-03T04:18:10;12.20;99.90
11569;DHT22;5840;46.894;15.542;2022-09-03T04:20:37;12.20;99.90
11569;DHT22;5840;46.894;15.542;2022-09-03T04:23:04;12.20;99.90
11569;DHT22;5840;46.894;15.542;2022-09-03T04:25:31;12.20;99.90
11569;DHT22;5840;46.894;15.542;2022-09-03T04:27:58;12.20;99.90
11569;DHT22;5840;46.894;15.542;2022-09-03T04:30:26;12.10;99.90
11569;DHT22;5840;46.894;15.542;2022-09-03T04:32:54;12.10;99.90
11569;DHT22;5840;46.894;15.542;2022-09-03T04:35:22;12.10;99.90
11569;DHT22;5840;46.894;15.542;2022-09-03T04:37:50;12.10;99.90
11569;DHT22;5840;46.894;15.542;2022-09-03T04:40:19;12.10;99.90
11569;DHT22;5840;46.894;15.542;2022-09-03T04:42:46;12.10;99.90
11569;DHT22;5840;46.894;15.542;2022-09-03T04:45:13;12.10;99.90
11569;DHT22;5840;46.894;15.542;2022-09-03T04:47:43;12.10;99.90
11569;DHT22;5840;46.894;15.542;2022-09-03T04:50:13;12.10;99.90
11569;DHT22;5840;46.894;15.542;2022-09-03T04:52:40;12.10;99.90
11569;DHT22;5840;46.894;15.542;2022-09-03T04:55:07;12.00;99.90
11569;DHT22;5840;46.894;15.542;2022-09-03T04:57:36;12.10;99.90
11569;DHT22;5840;46.894;15.542;2022-09-03T05:00:04;12.10;99.90
11569;DHT22;5840;46.894;15.542;2022-09-03T05:02:35;12.10;99.90
11569;DHT22;5840;46.894;15.542;2022-09-03T05:05:02;12.10;99.90
11569;DHT22;5840;46.894;15.542;2022-09-03T05:07:30;12.10;99.90
11569;DHT22;5840;46.894;15.542;2022-09-03T05:10:04;12.20;99.90
11569;DHT22;5840;46.894;15.542;2022-09-03T05:12:31;12.10;99.90
11569;DHT22;5840;46.894;15.542;2022-09-03T05:14:58;12.20;99.90
11569;DHT22;5840;46.894;15.542;2022-09-03T05:17:26;12.20;99.90
11569;DHT22;5840;46.894;15.542;2022-09-03T05:19:52;12.20;99.90
11569;DHT22;5840;46.894;15.542;2022-09-03T05:22:19;12.20;99.90
11569;DHT22;5840;46.894;15.542;2022-09-03T05:24:48;12.30;99.90
11569;DHT22;5840;46.894;15.542;2022-09-03T05:27:15;12.30;99.90
11569;DHT22;5840;46.894;15.542;2022-09-03T05:29:42;12.40;99.90
11569;DHT22;5840;46.894;15.542;2022-09-03T05:32:10;12.50;99.90
11569;DHT22;5840;46.894;15.542;2022-09-03T05:34:37;12.60;99.90
11569;DHT22;5840;46.894;15.542;2022-09-03T05:37:04;12.60;99.90
11569;DHT22;5840;46.894;15.542;2022-09-03T05:39:31;12.70;99.90
11569;DHT22;5840;46.894;15.542;2022-09-03T05:41:59;12.70;99.90
11569;DHT22;5840;46.894;15.542;2022-09-03T05:44:26;12.70;99.90
11569;DHT22;5840;46.894;15.542;2022-09-03T05:46:53;12.80;99.90
11569;DHT22;5840;46.894;15.542;2022-09-03T05:49:20;12.80;99.90
11569;DHT22;5840;46.894;15.542;2022-09-03T05:51:47;12.80;99.90
11569;DHT22;5840;46.894;15.542;2022-09-03T05:54:14;12.90;99.90
11569;DHT22;5840;46.894;15.542;2022-09-03T05:56:41;12.90;99.90
11569;DHT22;5840;46.894;15.542;2022-09-03T05:59:09;13.00;99.90
11569;DHT22;5840;46.894;15.542;2022-09-03T06:01:39;13.00;99.90
11569;DHT22;5840;46.894;15.542;2022-09-03T06:04:08;13.10;99.90
11569;DHT22;5840;46.894;15.542;2022-09-03T06:06:36;13.10;99.90
11569;DHT22;5840;46.894;15.542;2022-09-03T06:09:05;13.20;99.90
11569;DHT22;5840;46.894;15.542;2022-09-03T06:11:34;13.30;99.90
11569;DHT22;5840;46.894;15.542;2022-09-03T06:14:02;13.30;99.90
11569;DHT22;5840;46.894;15.542;2022-09-03T06:16:33;13.40;99.90
11569;DHT22;5840;46.894;15.542;2022-09-03T06:19:00;13.60;99.90
11569;DHT22;5840;46.894;15.542;2022-09-03T06:21:27;13.70;99.90
11569;DHT22;5840;46.894;15.542;2022-09-03T06:23:55;13.80;99.90
11569;DHT22;5840;46.894;15.542;2022-09-03T06:26:23;14.00;99.90
11569;DHT22;5840;46.894;15.542;2022-09-03T06:28:52;14.10;99.90
11569;DHT22;5840;46.894;15.542;2022-09-03T06:31:21;14.20;99.90
11569;DHT22;5840;46.894;15.542;2022-09-03T06:33:50;14.30;99.90
11569;DHT22;5840;46.894;15.542;2022-09-03T06:36:19;14.50;99.90
11569;DHT22;5840;46.894;15.542;2022-09-03T06:38:50;14.60;99.90
11569;DHT22;5840;46.894;15.542;2022-09-03T06:41:18;14.70;99.90
11569;DHT22;5840;46.894;15.542;2022-09-03T06:43:51;14.90;99.90
11569;DHT22;5840;46.894;15.542;2022-09-03T06:46:20;15.00;99.90
11569;DHT22;5840;46.894;15.542;2022-09-03T06:48:49;15.10;99.90
11569;DHT22;5840;46.894;15.542;2022-09-03T06:51:19;15.30;99.90
11569;DHT22;5840;46.894;15.542;2022-09-03T06:53:47;15.50;99.90
11569;DHT22;5840;46.894;15.542;2022-09-03T06:56:16;15.50;99.90
11569;DHT22;5840;46.894;15.542;2022-09-03T06:58:44;15.50;99.90
11569;DHT22;5840;46.894;15.542;2022-09-03T07:01:13;15.60;99.90
11569;DHT22;5840;46.894;15.542;2022-09-03T07:03:42;15.70;99.90
11569;DHT22;5840;46.894;15.542;2022-09-03T07:06:13;15.80;99.90
11569;DHT22;5840;46.894;15.542;2022-09-03T07:08:40;15.90;99.90
11569;DHT22;5840;46.894;15.542;2022-09-03T07:11:10;16.10;99.90
11569;DHT22;5840;46.894;15.542;2022-09-03T07:13:39;16.20;99.90
11569;DHT22;5840;46.894;15.542;2022-09-03T07:16:07;16.30;99.90
11569;DHT22;5840;46.894;15.542;2022-09-03T07:18:35;16.50;99.90
11569;DHT22;5840;46.894;15.542;2022-09-03T07:21:05;16.60;99.90
11569;DHT22;5840;46.894;15.542;2022-09-03T07:23:34;16.70;99.90
11569;DHT22;5840;46.894;15.542;2022-09-03T07:26:04;16.80;99.90
11569;DHT22;5840;46.894;15.542;2022-09-03T07:28:34;17.00;99.90
11569;DHT22;5840;46.894;15.542;2022-09-03T07:31:03;17.20;99.90
11569;DHT22;5840;46.894;15.542;2022-09-03T07:33:31;17.40;99.90
11569;DHT22;5840;46.894;15.542;2022-09-03T07:36:02;17.70;99.90
11569;DHT22;5840;46.894;15.542;2022-09-03T07:38:30;17.80;99.90
11569;DHT22;5840;46.894;15.542;2022-09-03T07:40:59;18.10;99.90
11569;DHT22;5840;46.894;15.542;2022-09-03T07:43:27;18.40;99.90
11569;DHT22;5840;46.894;15.542;2022-09-03T07:45:54;18.70;99.90
11569;DHT22;5840;46.894;15.542;2022-09-03T07:48:22;19.10;99.90
11569;DHT22;5840;46.894;15.542;2022-09-03T07:50:49;19.30;99.90
11569;DHT22;5840;46.894;15.542;2022-09-03T07:53:17;19.60;99.90
11569;DHT22;5840;46.894;15.542;2022-09-03T07:55:45;20.00;99.90
11569;DHT22;5840;46.894;15.542;2022-09-03T07:58:13;20.10;99.90
11569;DHT22;5840;46.894;15.542;2022-09-03T08:00:40;20.50;99.90
11569;DHT22;5840;46.894;15.542;2022-09-03T08:03:07;20.80;99.90
11569;DHT22;5840;46.894;15.542;2022-09-03T08:05:35;20.90;99.90
11569;DHT22;5840;46.894;15.542;2022-09-03T08:08:03;21.20;99.90
11569;DHT22;5840;46.894;15.542;2022-09-03T08:10:33;21.40;99.90
11569;DHT22;5840;46.894;15.542;2022-09-03T08:13:00;21.40;99.90
11569;DHT22;5840;46.894;15.542;2022-09-03T08:15:31;21.40;99.90
11569;DHT22;5840;46.894;15.542;2022-09-03T08:17:59;21.40;99.90
11569;DHT22;5840;46.894;15.542;2022-09-03T08:20:26;21.50;99.90
11569;DHT22;5840;46.894;15.542;2022-09-03T08:22:58;21.90;99.90
11569;DHT22;5840;46.894;15.542;2022-09-03T08:25:25;22.00;99.90
11569;DHT22;5840;46.894;15.542;2022-09-03T08:27:52;22.30;99.90
11569;DHT22;5840;46.894;15.542;2022-09-03T08:30:19;22.40;99.90
11569;DHT22;5840;46.894;15.542;2022-09-03T08:32:47;22.60;99.90
11569;DHT22;5840;46.894;15.542;2022-09-03T08:35:15;22.60;99.90
11569;DHT22;5840;46.894;15.542;2022-09-03T08:37:42;22.90;99.90
11569;DHT22;5840;46.894;15.542;2022-09-03T08:40:09;23.10;99.90
11569;DHT22;5840;46.894;15.542;2022-09-03T08:42:44;23.30;99.90
11569;DHT22;5840;46.894;15.542;2022-09-03T08:45:17;23.50;99.90
11569;DHT22;5840;46.894;15.542;2022-09-03T08:47:48;23.70;98.60
11569;DHT22;5840;46.894;15.542;2022-09-03T08:50:23;23.70;99.90
11569;DHT22;5840;46.894;15.542;2022-09-03T08:52:53;23.70;98.10
11569;DHT22;5840;46.894;15.542;2022-09-03T08:55:28;23.70;98.80
11569;DHT22;5840;46.894;15.542;2022-09-03T08:58:00;23.70;99.20
11569;DHT22;5840;46.894;15.542;2022-09-03T09:00:38;23.80;99.50
11569;DHT22;5840;46.894;15.542;2022-09-03T09:03:31;23.90;98.10
11569;DHT22;5840;46.894;15.542;2022-09-03T09:06:06;24.10;98.30
11569;DHT22;5840;46.894;15.542;2022-09-03T09:08:39;23.90;98.00
11569;DHT22;5840;46.894;15.542;2022-09-03T09:11:19;23.90;97.60
11569;DHT22;5840;46.894;15.542;2022-09-03T09:13:53;23.90;97.30
11569;DHT22;5840;46.894;15.542;2022-09-03T09:16:30;23.80;97.70
11569;DHT22;5840;46.894;15.542;2022-09-03T09:19:11;23.90;96.60
11569;DHT22;5840;46.894;15.542;2022-09-03T09:21:43;23.90;97.80
11569;DHT22;5840;46.894;15.542;2022-09-03T09:24:18;23.90;96.30
11569;DHT22;5840;46.894;15.542;2022-09-03T09:26:48;24.00;95.80
11569;DHT22;5840;46.894;15.542;2022-09-03T09:29:17;24.20;97.30
11569;DHT22;5840;46.894;15.542;2022-09-03T09:31:44;24.30;95.00
11569;DHT22;5840;46.894;15.542;2022-09-03T09:34:12;24.40;97.00
11569;DHT22;5840;46.894;15.542;2022-09-03T09:36:46;24.40;94.00
11569;DHT22;5840;46.894;15.542;2022-09-03T09:39:14;24.40;94.50
11569;DHT22;5840;46.894;15.542;2022-09-03T09:41:41;24.50;95.30
11569;DHT22;5840;46.894;15.542;2022-09-03T09:44:18;24.30;93.60
11569;DHT22;5840;46.894;15.542;2022-09-03T09:46:45;24.20;94.70
11569;DHT22;5840;46.894;15.542;2022-09-03T09:49:29;24.40;95.80
11569;DHT22;5840;46.894;15.542;2022-09-03T09:52:07;24.70;96.40
11569;DHT22;5840;46.894;15.542;2022-09-03T09:54:36;24.70;94.10
11569;DHT22;5840;46.894;15.542;2022-09-03T09:57:05;24.50;92.50
11569;DHT22;5840;46.894;15.542;2022-09-03T09:59:34;24.60;93.80
11569;DHT22;5840;46.894;15.542;2022-09-03T10:02:11;24.60;94.90
11569;DHT22;5840;46.894;15.542;2022-09-03T10:04:40;24.30;95.70
11569;DHT22;5840;46.894;15.542;2022-09-03T10:07:27;24.20;97.20
11569;DHT22;5840;46.894;15.542;2022-09-03T10:10:05;24.30;95.30
11569;DHT22;5840;46.894;15.542;2022-09-03T10:12:36;24.40;97.00
11569;DHT22;5840;46.894;15.542;2022-09-03T10:15:14;24.80;95.50
11569;DHT22;5840;46.894;15.542;2022-09-03T10:17:54;25.00;93.30
11569;DHT22;5840;46.894;15.542;2022-09-03T10:20:30;25.20;92.40
11569;DHT22;5840;46.894;15.542;2022-09-03T10:23:08;25.40;94.20
11569;DHT22;5840;46.894;15.542;2022-09-03T10:25:41;25.20;92.50
11569;DHT22;5840;46.894;15.542;2022-09-03T10:28:10;25.40;94.30
11569;DHT22;5840;46.894;15.542;2022-09-03T10:30:50;25.40;92.50
11569;DHT22;5840;46.894;15.542;2022-09-03T10:33:24;25.60;93.50
11569;DHT22;5840;46.894;15.542;2022-09-03T10:36:04;25.50;93.90
11569;DHT22;5840;46.894;15.542;2022-09-03T10:38:35;25.70;94.50
11569;DHT22;5840;46.894;15.542;2022-09-03T10:41:10;25.70;92.20
11569;DHT22;5840;46.894;15.542;2022-09-03T10:44:00;25.90;93.60
11569;DHT22;5840;46.894;15.542;2022-09-03T10:46:37;25.90;92.50
11569;DHT22;5840;46.894;15.542;2022-09-03T10:49:23;26.10;93.20
11569;DHT22;5840;46.894;15.542;2022-09-03T10:52:02;26.20;92.10
11569;DHT22;5840;46.894;15.542;2022-09-03T10:54:40;26.30;92.80
11569;DHT22;5840;46.894;15.542;2022-09-03T10:57:21;26.50;90.60
11569;DHT22;5840;46.894;15.542;2022-09-03T11:00:00;26.80;93.70
11569;DHT22;5840;46.894;15.542;2022-09-03T11:02:53;27.10;91.00
11569;DHT22;5840;46.894;15.542;2022-09-03T11:05:22;27.10;91.10
11569;DHT22;5840;46.894;15.542;2022-09-03T11:07:58;26.90;91.50
11569;DHT22;5840;46.894;15.542;2022-09-03T11:10:28;26.80;89.70
11569;DHT22;5840;46.894;15.542;2022-09-03T11:13:03;26.90;91.60
11569;DHT22;5840;46.894;15.542;2022-09-03T11:15:35;27.10;92.50
11569;DHT22;5840;46.894;15.542;2022-09-03T11:18:11;27.00;90.90
11569;DHT22;5840;46.894;15.542;2022-09-03T11:20:40;27.10;92.00
11569;DHT22;5840;46.894;15.542;2022-09-03T11:23:10;27.30;92.90
11569;DHT22;5840;46.894;15.542;2022-09-03T11:25:41;27.20;90.10
11569;DHT22;5840;46.894;15.542;2022-09-03T11:28:19;27.10;89.70
11569;DHT22;5840;46.894;15.542;2022-09-03T11:30:58;27.10;90.00
11569;DHT22;5840;46.894;15.542;2022-09-03T11:33:32;27.00;88.50
11569;DHT22;5840;46.894;15.542;2022-09-03T11:36:01;26.80;91.30
11569;DHT22;5840;46.894;15.542;2022-09-03T11:38:33;27.00;92.40
11569;DHT22;5840;46.894;15.542;2022-09-03T11:41:03;27.20;93.50
11569;DHT22;5840;46.894;15.542;2022-09-03T11:43:37;27.30;92.40
11569;DHT22;5840;46.894;15.542;2022-09-03T11:46:28;27.20;89.30
11569;DHT22;5840;46.894;15.542;2022-09-03T11:48:56;27.10;90.40
11569;DHT22;5840;46.894;15.542;2022-09-03T11:51:32;27.20;89.30
11569;DHT22;5840;46.894;15.542;2022-09-03T11:54:03;27.40;90.60
11569;DHT22;5840;46.894;15.542;2022-09-03T11:56:32;27.50;87.70
11569;DHT22;5840;46.894;15.542;2022-09-03T11:59:03;27.50;90.30
11569;DHT22;5840;46.894;15.542;2022-09-03T12:01:41;27.50;89.20
11569;DHT22;5840;46.894;15.542;2022-09-03T12:04:13;27.60;87.10
11569;DHT22;5840;46.894;15.542;2022-09-03T12:07:12;27.70;89.60
11569;DHT22;5840;46.894;15.542;2022-09-03T12:12:51;27.30;88.60
11569;DHT22;5840;46.894;15.542;2022-09-03T12:15:44;27.10;86.10
11569;DHT22;5840;46.894;15.542;2022-09-03T12:18:20;27.10;88.60
11569;DHT22;5840;46.894;15.542;2022-09-03T12:21:00;26.90;87.80
11569;DHT22;5840;46.894;15.542;2022-09-03T12:23:29;27.00;89.50
11569;DHT22;5840;46.894;15.542;2022-09-03T12:25:58;27.00;90.10
11569;DHT22;5840;46.894;15.542;2022-09-03T12:28:28;27.10;91.20
11569;DHT22;5840;46.894;15.542;2022-09-03T12:31:06;27.20;90.00
11569;DHT22;5840;46.894;15.542;2022-09-03T12:33:51;27.10;89.80
11569;DHT22;5840;46.894;15.542;2022-09-03T12:36:19;27.30;89.40
11569;DHT22;5840;46.894;15.542;2022-09-03T12:38:47;27.20;90.20
11569;DHT22;5840;46.894;15.542;2022-09-03T12:41:26;27.30;90.10
11569;DHT22;5840;46.894;15.542;2022-09-03T12:43:55;27.20;86.20
11569;DHT22;5840;46.894;15.542;2022-09-03T12:46:24;27.00;87.70
11569;DHT22;5840;46.894;15.542;2022-09-03T12:48:56;26.70;85.90
11569;DHT22;5840;46.894;15.542;2022-09-03T12:51:31;26.90;90.80
11569;DHT22;5840;46.894;15.542;2022-09-03T12:53:58;27.00;87.20
11569;DHT22;5840;46.894;15.542;2022-09-03T12:56:27;27.20;90.10
11569;DHT22;5840;46.894;15.542;2022-09-03T12:58:58;27.20;86.00
11569;DHT22;5840;46.894;15.542;2022-09-03T13:01:29;27.20;89.10
11569;DHT22;5840;46.894;15.542;2022-09-03T13:04:03;27.10;84.70
11569;DHT22;5840;46.894;15.542;2022-09-03T13:09:20;26.80;88.20
11569;DHT22;5840;46.894;15.542;2022-09-03T13:11:48;26.90;85.00
11569;DHT22;5840;46.894;15.542;2022-09-03T13:14:17;26.90;86.60
11569;DHT22;5840;46.894;15.542;2022-09-03T13:17:13;27.10;90.70
11569;DHT22;5840;46.894;15.542;2022-09-03T13:20:02;27.20;88.60
11569;DHT22;5840;46.894;15.542;2022-09-03T13:22:42;27.20;90.60
11569;DHT22;5840;46.894;15.542;2022-09-03T13:25:15;27.10;89.00
11569;DHT22;5840;46.894;15.542;2022-09-03T13:27:57;26.80;86.30
11569;DHT22;5840;46.894;15.542;2022-09-03T13:30:30;26.70;87.70
11569;DHT22;5840;46.894;15.542;2022-09-03T13:33:03;26.60;89.30
11569;DHT22;5840;46.894;15.542;2022-09-03T13:35:36;26.60;90.10
11569;DHT22;5840;46.894;15.542;2022-09-03T13:38:11;26.60;90.10
11569;DHT22;5840;46.894;15.542;2022-09-03T13:40:44;26.60;90.20
11569;DHT22;5840;46.894;15.542;2022-09-03T13:43:22;26.60;89.80
11569;DHT22;5840;46.894;15.542;2022-09-03T13:45:56;26.40;90.80
11569;DHT22;5840;46.894;15.542;2022-09-03T13:48:28;26.40;90.20
11569;DHT22;5840;46.894;15.542;2022-09-03T13:51:18;26.50;91.20
11569;DHT22;5840;46.894;15.542;2022-09-03T13:53:53;26.40;90.40
11569;DHT22;5840;46.894;15.542;2022-09-03T13:56:31;26.30;88.10
11569;DHT22;5840;46.894;15.542;2022-09-03T13:59:04;26.10;90.60
11569;DHT22;5840;46.894;15.542;2022-09-03T14:01:44;26.20;91.50
11569;DHT22;5840;46.894;15.542;2022-09-03T14:04:32;26.20;91.50
11569;DHT22;5840;46.894;15.542;2022-09-03T14:07:06;26.20;91.10
11569;DHT22;5840;46.894;15.542;2022-09-03T14:09:38;26.20;91.30
11569;DHT22;5840;46.894;15.542;2022-09-03T14:12:13;26.20;92.00
11569;DHT22;5840;46.894;15.542;2022-09-03T14:14:50;26.10;91.80
11569;DHT22;5840;46.894;15.542;2022-09-03T14:17:37;26.10;91.30
11569;DHT22;5840;46.894;15.542;2022-09-03T14:20:11;26.10;91.50
11569;DHT22;5840;46.894;15.542;2022-09-03T14:22:46;26.00;91.70
11569;DHT22;5840;46.894;15.542;2022-09-03T14:25:16;25.90;92.50
11569;DHT22;5840;46.894;15.542;2022-09-03T14:27:43;25.70;92.60
11569;DHT22;5840;46.894;15.542;2022-09-03T14:30:18;25.60;92.30
11569;DHT22;5840;46.894;15.542;2022-09-03T14:32:52;25.50;93.40
11569;DHT22;5840;46.894;15.542;2022-09-03T14:35:33;25.40;92.50
11569;DHT22;5840;46.894;15.542;2022-09-03T14:38:27;25.30;93.10
11569;DHT22;5840;46.894;15.542;2022-09-03T14:41:02;25.00;91.90
11569;DHT22;5840;46.894;15.542;2022-09-03T14:46:40;24.90;92.40
11569;DHT22;5840;46.894;15.542;2022-09-03T14:49:23;24.80;93.10
11569;DHT22;5840;46.894;15.542;2022-09-03T14:52:06;24.70;93.50
11569;DHT22;5840;46.894;15.542;2022-09-03T14:54:59;24.60;92.70
11569;DHT22;5840;46.894;15.542;2022-09-03T14:57:42;24.50;93.40
11569;DHT22;5840;46.894;15.542;2022-09-03T15:00:15;24.50;93.60
11569;DHT22;5840;46.894;15.542;2022-09-03T15:05:48;24.60;94.10
11569;DHT22;5840;46.894;15.542;2022-09-03T15:08:25;24.70;93.20
11569;DHT22;5840;46.894;15.542;2022-09-03T15:11:02;24.70;93.60
11569;DHT22;5840;46.894;15.542;2022-09-03T15:13:33;24.50;93.00
11569;DHT22;5840;46.894;15.542;2022-09-03T15:16:17;24.40;92.60
11569;DHT22;5840;46.894;15.542;2022-09-03T15:18:59;24.30;93.60
11569;DHT22;5840;46.894;15.542;2022-09-03T15:21:45;24.20;93.30
11569;DHT22;5840;46.894;15.542;2022-09-03T15:24:22;24.10;93.80
11569;DHT22;5840;46.894;15.542;2022-09-03T15:27:01;24.10;93.90
11569;DHT22;5840;46.894;15.542;2022-09-03T15:29:44;24.10;94.00
11569;DHT22;5840;46.894;15.542;2022-09-03T15:32:23;24.10;94.20
11569;DHT22;5840;46.894;15.542;2022-09-03T15:35:09;24.10;93.70
11569;DHT22;5840;46.894;15.542;2022-09-03T15:37:43;24.20;94.10
11569;DHT22;5840;46.894;15.542;2022-09-03T15:40:22;24.10;94.30
11569;DHT22;5840;46.894;15.542;2022-09-03T15:42:56;24.00;93.80
11569;DHT22;5840;46.894;15.542;2022-09-03T15:45:33;23.90;94.20
11569;DHT22;5840;46.894;15.542;2022-09-03T15:48:17;23.80;94.30
11569;DHT22;5840;46.894;15.542;2022-09-03T15:50:52;23.70;94.50
11569;DHT22;5840;46.894;15.542;2022-09-03T15:53:29;23.70;94.40
11569;DHT22;5840;46.894;15.542;2022-09-03T15:56:09;23.60;94.40
11569;DHT22;5840;46.894;15.542;2022-09-03T15:58:44;23.60;93.90
11569;DHT22;5840;46.894;15.542;2022-09-03T16:01:22;23.50;94.10
11569;DHT22;5840;46.894;15.542;2022-09-03T16:03:57;23.30;94.40
11569;DHT22;5840;46.894;15.542;2022-09-03T16:06:32;23.20;95.40
11569;DHT22;5840;46.894;15.542;2022-09-03T16:09:08;23.20;94.80
11569;DHT22;5840;46.894;15.542;2022-09-03T16:11:52;23.00;95.30
11569;DHT22;5840;46.894;15.542;2022-09-03T16:14:25;22.90;95.60
11569;DHT22;5840;46.894;15.542;2022-09-03T16:16:59;22.90;95.20